Kezdőlap
METAR-TAF:

METAR-TAF

Repülőterek :

Altenburg, Németország

földrajzi szélesség: 50-58N, földrajzi hosszúság: 012-30E, magasság: 195 m

Jelenlegi meteorológiai megfigyelések

A jelentés 14 perccel ezelõtt készült, 12:50 UTC
Nyugat-délnyugati szél 17 kt
Hőmérséklet 9°C
Páratartalom 46%
Légköri nyomás 1022 hPa
Látótávolság 10 km, vagy több
Szakadozott felhőzet 4800 lábon
Szakadozott felhőzet 6300 lábon

METAR: EDAC 181250Z 25017KT 9999 BKN048 BKN063 09/M02 Q1022

Idő: 14:04 (13:04 UTC)

Előrejelzés

A jelentés 2 órával és 4 perccel ezelõtt készült, 11:00 UTC
Az előrejelzés 18-én 12 óra UTC és 18-én 21 óra UTC között érvényes
Nyugat-délnyugati szél 15 kt széllökések: 30 kt
Látótávolság 10 km, vagy több
Szakadozott felhőzet 4500 lábon
18-én 14 óra UTC és 18-én 16 óra UTC között fokozatosan kialakuló
Délnyugati szél 12 kt

TAF: EDAC 181100Z 1812/1821 25015G30KT 9999 BKN045 BECMG 1814/1816 22012KT

Meteorológiai megfigyelések és előrejelzések több, mint 4000 repülőtéren (METAR és TAF jelentéseket).

A térképen piros és sárga pontok jelzik az elérhető meteorológiai állomásokat.

Mozgassa az egeret a pont fölött, hogy megjelenjen az állomás neve.

Azután kattintson az időjárási megfigyelések és előrejelzések megtekintéséhez.

A térkép megváltoztatása: kattintson a fekete keresztel jelölt zöld gombra ráközelítéshez, a vonallal jelölt zöld gombra távolításhoz, vagy a zöld nyilakra a szomszédos térképek eléréséhez.


METAR-TAF: